Pagina principale
METAR-TAF:

METAR-TAF

Aeroporti :

Aeroporto Internazionale del Kuwait

Madinat al-Kuwait, Kuwait

latitudine: 29-13N, longitudine: 047-59E, altezza: 55 m

Osservazione

Il bollettino è stato emesso 29 minuti fa, alle 00:00 UTC
Vento 3 kt da sud
Temperature 24°C
Umidità 65%
Pressione 1014 hPa
Visibilità: 4500 m
Cielo sereno
(debole) foschia

METAR: OKBK 160000Z 18003KT 4500 -HZ SKC 24/17 Q1014 NOSIG

Ora: 03:29 (00:29 UTC)

Previsione

Il bollettino è stato emesso 1 ora e 44 minuti fa, alle 22:45 UTC
Previsione valida dal 16 alle 00 UTC al 17 alle 06 UTC
Vento 10 kt da sud/sud-est
Visibilità: 6000 m
Temporaneamente
dal 16 alle 00 UTC al 16 alle 06 UTC
Vento 3 kt da direzioni variabili
Visibilità: 2000 m

TAF: OKBK 152245Z 1600/1706 16010KT 6000 NSC TEMPO 1600/1606 VRB03KT 2000 BR/HZ

Osservazioni e previsioni meteorologiche di più di 4000 aeroporti (messaggi METAR e TAF).

Le stazioni disponibili sono rappresentate dai dischi gialli e rossi sulla carta.

Puntare il mouse per vedere il nome della stazione.

Clicca sopra per visualizzare le osservazioni e previsioni meteorologiche.

Per cambiare la mappa : fare clic sui pulsanti verdi con una croce nera per ingrandire, il pulsante verde con un trattino per diminuire, o sulla freccia verde per le mappe adiacenti.


METAR-TAF: